METAR UND TAF INFORMATION
UEEE 241100Z 05002MPS 9999 SCT050CB 21/18 Q1000 R23L/290156 NOSIG RMK QFE741

 FLUGHAFENKARTE

 RUNWAY INFORMATION
Runway 05L Runway length 8202 ft Runway width 161 ft
Runway elevation 322 ft Runway displaced threshold 0 ft Runway heading 30
Runway 23R Runway length 8202 ft Runway width 161 ft
Runway elevation 318 ft Runway displaced threshold 3400 ft Runway heading 210
Runway 05R Runway length 11155 ft Runway width 197 ft
Runway elevation 322 ft Runway displaced threshold 2965 ft Runway heading 37
Runway 23L Runway length 11155 ft Runway width 197 ft
Runway elevation 315 ft Runway displaced threshold 0 ft Runway heading 217

 AIRPORT FREQUENCIES
Type APP Name APP Frequency 129.3 MHZ
Type ATIS Name ATIS Frequency 126.2 MHZ
Type GND Name GND Frequency 121.7 MHZ
Type RDR Name ASR Frequency 120.3 MHZ
Type TWR Name TWR Frequency 120 MHZ

 AIRPORT NEAR NAVIGATION AIDS
Type NDB Name Yakutsk Frequency 334 KHZ
Type NDB Name Yakutsk Frequency 290 KHZ
Type NDB Name Yakutsk Frequency 334 KHZ